<?xml version="1.0" encoding="UTF-8" ?>
		<gpx
		 version="1.0"
		 xmlns:xsi="http://www.w3.org/2001/XMLSchema-instance"
		 xmlns="http://www.topografix.com/GPX/1/0"
		 xsi:schemaLocation="http://www.topografix.com/GPX/1/0 http://www.topografix.com/GPX/1/0/gpx.xsd"
		 creator="http://www.openrunner.com">
			<trk>
				<name>OR-6929860--Gorzegno:Salita dei Campioni - Hugo Koblet</name>
			    <trkseg>
	
			<trkpt lat="44.512930" lon="8.130940">
			 <ele>347</ele>
			<time>2017-11-10T16:10:30Z</time>
			</trkpt>
		
			<trkpt lat="44.512940" lon="8.130970">
			 <ele>347</ele>
			<time>2017-11-10T16:12:30Z</time>
			</trkpt>
		
			<trkpt lat="44.513040" lon="8.131350">
			 <ele>348</ele>
			<time>2017-11-10T16:14:30Z</time>
			</trkpt>
		
			<trkpt lat="44.513170" lon="8.131770">
			 <ele>350</ele>
			<time>2017-11-10T16:16:30Z</time>
			</trkpt>
		
			<trkpt lat="44.513280" lon="8.132130">
			 <ele>352</ele>
			<time>2017-11-10T16:18:30Z</time>
			</trkpt>
		
			<trkpt lat="44.513320" lon="8.132270">
			 <ele>353</ele>
			<time>2017-11-10T16:20:30Z</time>
			</trkpt>
		
			<trkpt lat="44.513340" lon="8.132330">
			 <ele>353</ele>
			<time>2017-11-10T16:22:30Z</time>
			</trkpt>
		
			<trkpt lat="44.513410" lon="8.132520">
			 <ele>356</ele>
			<time>2017-11-10T16:24:30Z</time>
			</trkpt>
		
			<trkpt lat="44.513480" lon="8.132690">
			 <ele>357</ele>
			<time>2017-11-10T16:26:30Z</time>
			</trkpt>
		
			<trkpt lat="44.513530" lon="8.132800">
			 <ele>358</ele>
			<time>2017-11-10T16:28:30Z</time>
			</trkpt>
		
			<trkpt lat="44.513540" lon="8.132830">
			 <ele>358</ele>
			<time>2017-11-10T16:30:30Z</time>
			</trkpt>
		
			<trkpt lat="44.513590" lon="8.132940">
			 <ele>359</ele>
			<time>2017-11-10T16:32:30Z</time>
			</trkpt>
		
			<trkpt lat="44.513590" lon="8.132940">
			 <ele>359</ele>
			<time>2017-11-10T16:34:30Z</time>
			</trkpt>
		
			<trkpt lat="44.513630" lon="8.132910">
			 <ele>361</ele>
			<time>2017-11-10T16:36:30Z</time>
			</trkpt>
		
			<trkpt lat="44.513640" lon="8.132880">
			 <ele>362</ele>
			<time>2017-11-10T16:38:30Z</time>
			</trkpt>
		
			<trkpt lat="44.513650" lon="8.132830">
			 <ele>363</ele>
			<time>2017-11-10T16:40:30Z</time>
			</trkpt>
		
			<trkpt lat="44.513650" lon="8.132780">
			 <ele>364</ele>
			<time>2017-11-10T16:42:30Z</time>
			</trkpt>
		
			<trkpt lat="44.513630" lon="8.132710">
			 <ele>364</ele>
			<time>2017-11-10T16:44:30Z</time>
			</trkpt>
		
			<trkpt lat="44.513610" lon="8.132640">
			 <ele>364</ele>
			<time>2017-11-10T16:46:30Z</time>
			</trkpt>
		
			<trkpt lat="44.513570" lon="8.132490">
			 <ele>364</ele>
			<time>2017-11-10T16:48:30Z</time>
			</trkpt>
		
			<trkpt lat="44.513530" lon="8.132300">
			 <ele>363</ele>
			<time>2017-11-10T16:50:30Z</time>
			</trkpt>
		
			<trkpt lat="44.513500" lon="8.132160">
			 <ele>363</ele>
			<time>2017-11-10T16:52:30Z</time>
			</trkpt>
		
			<trkpt lat="44.513480" lon="8.132020">
			 <ele>363</ele>
			<time>2017-11-10T16:54:30Z</time>
			</trkpt>
		
			<trkpt lat="44.513430" lon="8.131790">
			 <ele>361</ele>
			<time>2017-11-10T16:56:30Z</time>
			</trkpt>
		
			<trkpt lat="44.513410" lon="8.131600">
			 <ele>362</ele>
			<time>2017-11-10T16:58:30Z</time>
			</trkpt>
		
			<trkpt lat="44.513390" lon="8.131430">
			 <ele>363</ele>
			<time>2017-11-10T17:00:30Z</time>
			</trkpt>
		
			<trkpt lat="44.513370" lon="8.131170">
			 <ele>366</ele>
			<time>2017-11-10T17:02:30Z</time>
			</trkpt>
		
			<trkpt lat="44.513360" lon="8.131000">
			 <ele>367</ele>
			<time>2017-11-10T17:04:30Z</time>
			</trkpt>
		
			<trkpt lat="44.513340" lon="8.130790">
			 <ele>369</ele>
			<time>2017-11-10T17:06:30Z</time>
			</trkpt>
		
			<trkpt lat="44.513340" lon="8.130640">
			 <ele>371</ele>
			<time>2017-11-10T17:08:30Z</time>
			</trkpt>
		
			<trkpt lat="44.513340" lon="8.130480">
			 <ele>374</ele>
			<time>2017-11-10T17:10:30Z</time>
			</trkpt>
		
			<trkpt lat="44.513350" lon="8.130350">
			 <ele>376</ele>
			<time>2017-11-10T17:12:30Z</time>
			</trkpt>
		
			<trkpt lat="44.513340" lon="8.130230">
			 <ele>378</ele>
			<time>2017-11-10T17:14:30Z</time>
			</trkpt>
		
			<trkpt lat="44.513320" lon="8.130130">
			 <ele>378</ele>
			<time>2017-11-10T17:16:30Z</time>
			</trkpt>
		
			<trkpt lat="44.513290" lon="8.130000">
			 <ele>379</ele>
			<time>2017-11-10T17:18:30Z</time>
			</trkpt>
		
			<trkpt lat="44.513250" lon="8.129840">
			 <ele>379</ele>
			<time>2017-11-10T17:20:30Z</time>
			</trkpt>
		
			<trkpt lat="44.513210" lon="8.129700">
			 <ele>378</ele>
			<time>2017-11-10T17:22:30Z</time>
			</trkpt>
		
			<trkpt lat="44.513200" lon="8.129630">
			 <ele>379</ele>
			<time>2017-11-10T17:24:30Z</time>
			</trkpt>
		
			<trkpt lat="44.513180" lon="8.129540">
			 <ele>379</ele>
			<time>2017-11-10T17:26:30Z</time>
			</trkpt>
		
			<trkpt lat="44.513160" lon="8.129370">
			 <ele>380</ele>
			<time>2017-11-10T17:28:30Z</time>
			</trkpt>
		
			<trkpt lat="44.513130" lon="8.129190">
			 <ele>380</ele>
			<time>2017-11-10T17:30:30Z</time>
			</trkpt>
		
			<trkpt lat="44.513070" lon="8.128980">
			 <ele>379</ele>
			<time>2017-11-10T17:32:30Z</time>
			</trkpt>
		
			<trkpt lat="44.513020" lon="8.128850">
			 <ele>378</ele>
			<time>2017-11-10T17:34:30Z</time>
			</trkpt>
		
			<trkpt lat="44.512990" lon="8.128740">
			 <ele>377</ele>
			<time>2017-11-10T17:36:30Z</time>
			</trkpt>
		
			<trkpt lat="44.512980" lon="8.128670">
			 <ele>378</ele>
			<time>2017-11-10T17:38:30Z</time>
			</trkpt>
		
			<trkpt lat="44.512980" lon="8.128530">
			 <ele>379</ele>
			<time>2017-11-10T17:40:30Z</time>
			</trkpt>
		
			<trkpt lat="44.512960" lon="8.128370">
			 <ele>380</ele>
			<time>2017-11-10T17:42:30Z</time>
			</trkpt>
		
			<trkpt lat="44.512920" lon="8.128230">
			 <ele>380</ele>
			<time>2017-11-10T17:44:30Z</time>
			</trkpt>
		
			<trkpt lat="44.512870" lon="8.128070">
			 <ele>381</ele>
			<time>2017-11-10T17:46:30Z</time>
			</trkpt>
		
			<trkpt lat="44.512800" lon="8.127830">
			 <ele>382</ele>
			<time>2017-11-10T17:48:30Z</time>
			</trkpt>
		
			<trkpt lat="44.512740" lon="8.127620">
			 <ele>383</ele>
			<time>2017-11-10T17:50:30Z</time>
			</trkpt>
		
			<trkpt lat="44.512730" lon="8.127510">
			 <ele>385</ele>
			<time>2017-11-10T17:52:30Z</time>
			</trkpt>
		
			<trkpt lat="44.512720" lon="8.127380">
			 <ele>387</ele>
			<time>2017-11-10T17:54:30Z</time>
			</trkpt>
		
			<trkpt lat="44.512700" lon="8.127290">
			 <ele>389</ele>
			<time>2017-11-10T17:56:30Z</time>
			</trkpt>
		
			<trkpt lat="44.512680" lon="8.127220">
			 <ele>389</ele>
			<time>2017-11-10T17:58:30Z</time>
			</trkpt>
		
			<trkpt lat="44.512660" lon="8.127160">
			 <ele>390</ele>
			<time>2017-11-10T18:00:30Z</time>
			</trkpt>
		
			<trkpt lat="44.512610" lon="8.127070">
			 <ele>390</ele>
			<time>2017-11-10T18:02:30Z</time>
			</trkpt>
		
			<trkpt lat="44.512560" lon="8.127000">
			 <ele>389</ele>
			<time>2017-11-10T18:04:30Z</time>
			</trkpt>
		
			<trkpt lat="44.512510" lon="8.126900">
			 <ele>390</ele>
			<time>2017-11-10T18:06:30Z</time>
			</trkpt>
		
			<trkpt lat="44.512440" lon="8.126740">
			 <ele>391</ele>
			<time>2017-11-10T18:08:30Z</time>
			</trkpt>
		
			<trkpt lat="44.512380" lon="8.126540">
			 <ele>392</ele>
			<time>2017-11-10T18:10:30Z</time>
			</trkpt>
		
			<trkpt lat="44.512330" lon="8.126350">
			 <ele>393</ele>
			<time>2017-11-10T18:12:30Z</time>
			</trkpt>
		
			<trkpt lat="44.512280" lon="8.126130">
			 <ele>394</ele>
			<time>2017-11-10T18:14:30Z</time>
			</trkpt>
		
			<trkpt lat="44.512270" lon="8.126040">
			 <ele>395</ele>
			<time>2017-11-10T18:16:30Z</time>
			</trkpt>
		
			<trkpt lat="44.512280" lon="8.125820">
			 <ele>400</ele>
			<time>2017-11-10T18:18:30Z</time>
			</trkpt>
		
			<trkpt lat="44.512290" lon="8.125710">
			 <ele>401</ele>
			<time>2017-11-10T18:20:30Z</time>
			</trkpt>
		
			<trkpt lat="44.512310" lon="8.125610">
			 <ele>403</ele>
			<time>2017-11-10T18:22:30Z</time>
			</trkpt>
		
			<trkpt lat="44.512340" lon="8.125430">
			 <ele>406</ele>
			<time>2017-11-10T18:24:30Z</time>
			</trkpt>
		
			<trkpt lat="44.512370" lon="8.125260">
			 <ele>408</ele>
			<time>2017-11-10T18:26:30Z</time>
			</trkpt>
		
			<trkpt lat="44.512390" lon="8.125040">
			 <ele>411</ele>
			<time>2017-11-10T18:28:30Z</time>
			</trkpt>
		
			<trkpt lat="44.512380" lon="8.124860">
			 <ele>413</ele>
			<time>2017-11-10T18:30:30Z</time>
			</trkpt>
		
			<trkpt lat="44.512360" lon="8.124720">
			 <ele>414</ele>
			<time>2017-11-10T18:32:30Z</time>
			</trkpt>
		
			<trkpt lat="44.512340" lon="8.124490">
			 <ele>417</ele>
			<time>2017-11-10T18:34:30Z</time>
			</trkpt>
		
			<trkpt lat="44.512340" lon="8.124310">
			 <ele>419</ele>
			<time>2017-11-10T18:36:30Z</time>
			</trkpt>
		
			<trkpt lat="44.512340" lon="8.124190">
			 <ele>421</ele>
			<time>2017-11-10T18:38:30Z</time>
			</trkpt>
		
			<trkpt lat="44.512320" lon="8.124100">
			 <ele>422</ele>
			<time>2017-11-10T18:40:30Z</time>
			</trkpt>
		
			<trkpt lat="44.512260" lon="8.124010">
			 <ele>420</ele>
			<time>2017-11-10T18:42:30Z</time>
			</trkpt>
		
			<trkpt lat="44.512210" lon="8.123970">
			 <ele>419</ele>
			<time>2017-11-10T18:44:30Z</time>
			</trkpt>
		
			<trkpt lat="44.512130" lon="8.123910">
			 <ele>416</ele>
			<time>2017-11-10T18:46:30Z</time>
			</trkpt>
		
			<trkpt lat="44.512090" lon="8.123860">
			 <ele>416</ele>
			<time>2017-11-10T18:48:30Z</time>
			</trkpt>
		
			<trkpt lat="44.512080" lon="8.123790">
			 <ele>416</ele>
			<time>2017-11-10T18:50:30Z</time>
			</trkpt>
		
			<trkpt lat="44.512080" lon="8.123720">
			 <ele>417</ele>
			<time>2017-11-10T18:52:30Z</time>
			</trkpt>
		
			<trkpt lat="44.512090" lon="8.123640">
			 <ele>419</ele>
			<time>2017-11-10T18:54:30Z</time>
			</trkpt>
		
			<trkpt lat="44.512130" lon="8.123460">
			 <ele>423</ele>
			<time>2017-11-10T18:56:30Z</time>
			</trkpt>
		
			<trkpt lat="44.512150" lon="8.123270">
			 <ele>426</ele>
			<time>2017-11-10T18:58:30Z</time>
			</trkpt>
		
			<trkpt lat="44.512180" lon="8.122940">
			 <ele>431</ele>
			<time>2017-11-10T19:00:30Z</time>
			</trkpt>
		
			<trkpt lat="44.512190" lon="8.122640">
			 <ele>436</ele>
			<time>2017-11-10T19:02:30Z</time>
			</trkpt>
		
			<trkpt lat="44.512170" lon="8.122450">
			 <ele>438</ele>
			<time>2017-11-10T19:04:30Z</time>
			</trkpt>
		
			<trkpt lat="44.512130" lon="8.122320">
			 <ele>440</ele>
			<time>2017-11-10T19:06:30Z</time>
			</trkpt>
		
			<trkpt lat="44.512080" lon="8.122230">
			 <ele>441</ele>
			<time>2017-11-10T19:08:30Z</time>
			</trkpt>
		
			<trkpt lat="44.512020" lon="8.122180">
			 <ele>441</ele>
			<time>2017-11-10T19:10:30Z</time>
			</trkpt>
		
			<trkpt lat="44.511960" lon="8.122160">
			 <ele>440</ele>
			<time>2017-11-10T19:12:30Z</time>
			</trkpt>
		
			<trkpt lat="44.511860" lon="8.122160">
			 <ele>438</ele>
			<time>2017-11-10T19:14:30Z</time>
			</trkpt>
		
			<trkpt lat="44.511710" lon="8.122190">
			 <ele>434</ele>
			<time>2017-11-10T19:16:30Z</time>
			</trkpt>
		
			<trkpt lat="44.511440" lon="8.122240">
			 <ele>431</ele>
			<time>2017-11-10T19:18:30Z</time>
			</trkpt>
		
			<trkpt lat="44.511340" lon="8.122250">
			 <ele>430</ele>
			<time>2017-11-10T19:20:30Z</time>
			</trkpt>
		
			<trkpt lat="44.511290" lon="8.122240">
			 <ele>430</ele>
			<time>2017-11-10T19:22:30Z</time>
			</trkpt>
		
			<trkpt lat="44.511280" lon="8.122220">
			 <ele>431</ele>
			<time>2017-11-10T19:24:30Z</time>
			</trkpt>
		
			<trkpt lat="44.511270" lon="8.122200">
			 <ele>432</ele>
			<time>2017-11-10T19:26:30Z</time>
			</trkpt>
		
			<trkpt lat="44.511280" lon="8.122170">
			 <ele>433</ele>
			<time>2017-11-10T19:28:30Z</time>
			</trkpt>
		
			<trkpt lat="44.511290" lon="8.122160">
			 <ele>433</ele>
			<time>2017-11-10T19:30:30Z</time>
			</trkpt>
		
			<trkpt lat="44.511290" lon="8.122160">
			 <ele>433</ele>
			<time>2017-11-10T19:32:30Z</time>
			</trkpt>
		
			<trkpt lat="44.511300" lon="8.122150">
			 <ele>433</ele>
			<time>2017-11-10T19:34:30Z</time>
			</trkpt>
		
			<trkpt lat="44.511360" lon="8.122140">
			 <ele>434</ele>
			<time>2017-11-10T19:36:30Z</time>
			</trkpt>
		
			<trkpt lat="44.511420" lon="8.122120">
			 <ele>435</ele>
			<time>2017-11-10T19:38:30Z</time>
			</trkpt>
		
			<trkpt lat="44.511480" lon="8.122100">
			 <ele>436</ele>
			<time>2017-11-10T19:40:30Z</time>
			</trkpt>
		
			<trkpt lat="44.511590" lon="8.122030">
			 <ele>438</ele>
			<time>2017-11-10T19:42:30Z</time>
			</trkpt>
		
			<trkpt lat="44.511690" lon="8.121950">
			 <ele>442</ele>
			<time>2017-11-10T19:44:30Z</time>
			</trkpt>
		
			<trkpt lat="44.511840" lon="8.121860">
			 <ele>446</ele>
			<time>2017-11-10T19:46:30Z</time>
			</trkpt>
		
			<trkpt lat="44.512090" lon="8.121750">
			 <ele>452</ele>
			<time>2017-11-10T19:48:30Z</time>
			</trkpt>
		
			<trkpt lat="44.512170" lon="8.121740">
			 <ele>453</ele>
			<time>2017-11-10T19:50:30Z</time>
			</trkpt>
		
			<trkpt lat="44.512230" lon="8.121740">
			 <ele>453</ele>
			<time>2017-11-10T19:52:30Z</time>
			</trkpt>
		
			<trkpt lat="44.512280" lon="8.121770">
			 <ele>453</ele>
			<time>2017-11-10T19:54:30Z</time>
			</trkpt>
		
			<trkpt lat="44.512330" lon="8.121860">
			 <ele>452</ele>
			<time>2017-11-10T19:56:30Z</time>
			</trkpt>
		
			<trkpt lat="44.512440" lon="8.122150">
			 <ele>449</ele>
			<time>2017-11-10T19:58:30Z</time>
			</trkpt>
		
			<trkpt lat="44.512500" lon="8.122460">
			 <ele>446</ele>
			<time>2017-11-10T20:00:30Z</time>
			</trkpt>
		
			<trkpt lat="44.512520" lon="8.122650">
			 <ele>446</ele>
			<time>2017-11-10T20:02:30Z</time>
			</trkpt>
		
			<trkpt lat="44.512530" lon="8.122780">
			 <ele>445</ele>
			<time>2017-11-10T20:04:30Z</time>
			</trkpt>
		
			<trkpt lat="44.512520" lon="8.122900">
			 <ele>444</ele>
			<time>2017-11-10T20:06:30Z</time>
			</trkpt>
		
			<trkpt lat="44.512510" lon="8.123030">
			 <ele>442</ele>
			<time>2017-11-10T20:08:30Z</time>
			</trkpt>
		
			<trkpt lat="44.512510" lon="8.123120">
			 <ele>441</ele>
			<time>2017-11-10T20:10:30Z</time>
			</trkpt>
		
			<trkpt lat="44.512510" lon="8.123190">
			 <ele>441</ele>
			<time>2017-11-10T20:12:30Z</time>
			</trkpt>
		
			<trkpt lat="44.512510" lon="8.123270">
			 <ele>440</ele>
			<time>2017-11-10T20:14:30Z</time>
			</trkpt>
		
			<trkpt lat="44.512550" lon="8.123370">
			 <ele>441</ele>
			<time>2017-11-10T20:16:30Z</time>
			</trkpt>
		
			<trkpt lat="44.512580" lon="8.123430">
			 <ele>442</ele>
			<time>2017-11-10T20:18:30Z</time>
			</trkpt>
		
			<trkpt lat="44.512630" lon="8.123460">
			 <ele>445</ele>
			<time>2017-11-10T20:20:30Z</time>
			</trkpt>
		
			<trkpt lat="44.512750" lon="8.123540">
			 <ele>451</ele>
			<time>2017-11-10T20:22:30Z</time>
			</trkpt>
		
			<trkpt lat="44.512850" lon="8.123600">
			 <ele>455</ele>
			<time>2017-11-10T20:24:30Z</time>
			</trkpt>
		
			<trkpt lat="44.512850" lon="8.123600">
			 <ele>455</ele>
			<time>2017-11-10T20:26:30Z</time>
			</trkpt>
		
			<trkpt lat="44.512850" lon="8.123590">
			 <ele>456</ele>
			<time>2017-11-10T20:28:30Z</time>
			</trkpt>
		
			<trkpt lat="44.512860" lon="8.123550">
			 <ele>457</ele>
			<time>2017-11-10T20:30:30Z</time>
			</trkpt>
		
			<trkpt lat="44.512850" lon="8.123520">
			 <ele>457</ele>
			<time>2017-11-10T20:32:30Z</time>
			</trkpt>
		
			<trkpt lat="44.512840" lon="8.123470">
			 <ele>457</ele>
			<time>2017-11-10T20:34:30Z</time>
			</trkpt>
		
			<trkpt lat="44.512810" lon="8.123430">
			 <ele>456</ele>
			<time>2017-11-10T20:36:30Z</time>
			</trkpt>
		
			<trkpt lat="44.512780" lon="8.123400">
			 <ele>454</ele>
			<time>2017-11-10T20:38:30Z</time>
			</trkpt>
		
			<trkpt lat="44.512730" lon="8.123360">
			 <ele>452</ele>
			<time>2017-11-10T20:40:30Z</time>
			</trkpt>
		
			<trkpt lat="44.512680" lon="8.123290">
			 <ele>450</ele>
			<time>2017-11-10T20:42:30Z</time>
			</trkpt>
		
			<trkpt lat="44.512660" lon="8.123250">
			 <ele>449</ele>
			<time>2017-11-10T20:44:30Z</time>
			</trkpt>
		
			<trkpt lat="44.512650" lon="8.123170">
			 <ele>449</ele>
			<time>2017-11-10T20:46:30Z</time>
			</trkpt>
		
			<trkpt lat="44.512660" lon="8.123120">
			 <ele>450</ele>
			<time>2017-11-10T20:48:30Z</time>
			</trkpt>
		
			<trkpt lat="44.512670" lon="8.123090">
			 <ele>451</ele>
			<time>2017-11-10T20:50:30Z</time>
			</trkpt>
		
			<trkpt lat="44.512690" lon="8.123020">
			 <ele>453</ele>
			<time>2017-11-10T20:52:30Z</time>
			</trkpt>
		
			<trkpt lat="44.512710" lon="8.122920">
			 <ele>455</ele>
			<time>2017-11-10T20:54:30Z</time>
			</trkpt>
		
			<trkpt lat="44.512740" lon="8.122720">
			 <ele>458</ele>
			<time>2017-11-10T20:56:30Z</time>
			</trkpt>
		
			<trkpt lat="44.512780" lon="8.122530">
			 <ele>463</ele>
			<time>2017-11-10T20:58:30Z</time>
			</trkpt>
		
			<trkpt lat="44.512800" lon="8.122270">
			 <ele>466</ele>
			<time>2017-11-10T21:00:30Z</time>
			</trkpt>
		
			<trkpt lat="44.512820" lon="8.122070">
			 <ele>469</ele>
			<time>2017-11-10T21:02:30Z</time>
			</trkpt>
		
			<trkpt lat="44.512830" lon="8.121940">
			 <ele>471</ele>
			<time>2017-11-10T21:04:30Z</time>
			</trkpt>
		
			<trkpt lat="44.512830" lon="8.121830">
			 <ele>472</ele>
			<time>2017-11-10T21:06:30Z</time>
			</trkpt>
		
			<trkpt lat="44.512830" lon="8.121750">
			 <ele>472</ele>
			<time>2017-11-10T21:08:30Z</time>
			</trkpt>
		
			<trkpt lat="44.512810" lon="8.121650">
			 <ele>472</ele>
			<time>2017-11-10T21:10:30Z</time>
			</trkpt>
		
			<trkpt lat="44.512810" lon="8.121450">
			 <ele>477</ele>
			<time>2017-11-10T21:12:30Z</time>
			</trkpt>
		
			<trkpt lat="44.512790" lon="8.121290">
			 <ele>480</ele>
			<time>2017-11-10T21:14:30Z</time>
			</trkpt>
		
			<trkpt lat="44.512760" lon="8.121190">
			 <ele>481</ele>
			<time>2017-11-10T21:16:30Z</time>
			</trkpt>
		
			<trkpt lat="44.512720" lon="8.121120">
			 <ele>482</ele>
			<time>2017-11-10T21:18:30Z</time>
			</trkpt>
		
			<trkpt lat="44.512670" lon="8.121070">
			 <ele>481</ele>
			<time>2017-11-10T21:20:30Z</time>
			</trkpt>
		
			<trkpt lat="44.512620" lon="8.121040">
			 <ele>480</ele>
			<time>2017-11-10T21:22:30Z</time>
			</trkpt>
		
			<trkpt lat="44.512570" lon="8.121020">
			 <ele>479</ele>
			<time>2017-11-10T21:24:30Z</time>
			</trkpt>
		
			<trkpt lat="44.512520" lon="8.121000">
			 <ele>478</ele>
			<time>2017-11-10T21:26:30Z</time>
			</trkpt>
		
			<trkpt lat="44.512440" lon="8.121000">
			 <ele>478</ele>
			<time>2017-11-10T21:28:30Z</time>
			</trkpt>
		
			<trkpt lat="44.512370" lon="8.121000">
			 <ele>478</ele>
			<time>2017-11-10T21:30:30Z</time>
			</trkpt>
		
			<trkpt lat="44.512270" lon="8.121020">
			 <ele>478</ele>
			<time>2017-11-10T21:32:30Z</time>
			</trkpt>
		
			<trkpt lat="44.512190" lon="8.121050">
			 <ele>477</ele>
			<time>2017-11-10T21:34:30Z</time>
			</trkpt>
		
			<trkpt lat="44.512050" lon="8.121060">
			 <ele>477</ele>
			<time>2017-11-10T21:36:30Z</time>
			</trkpt>
		
			<trkpt lat="44.511880" lon="8.121070">
			 <ele>477</ele>
			<time>2017-11-10T21:38:30Z</time>
			</trkpt>
		
			<trkpt lat="44.511760" lon="8.121090">
			 <ele>476</ele>
			<time>2017-11-10T21:40:30Z</time>
			</trkpt>
		
			<trkpt lat="44.511640" lon="8.121140">
			 <ele>474</ele>
			<time>2017-11-10T21:42:30Z</time>
			</trkpt>
		
			<trkpt lat="44.511570" lon="8.121150">
			 <ele>473</ele>
			<time>2017-11-10T21:44:30Z</time>
			</trkpt>
		
			<trkpt lat="44.511520" lon="8.121150">
			 <ele>473</ele>
			<time>2017-11-10T21:46:30Z</time>
			</trkpt>
		
			<trkpt lat="44.511480" lon="8.121140">
			 <ele>473</ele>
			<time>2017-11-10T21:48:30Z</time>
			</trkpt>
		
			<trkpt lat="44.511390" lon="8.121060">
			 <ele>476</ele>
			<time>2017-11-10T21:50:30Z</time>
			</trkpt>
		
			<trkpt lat="44.511330" lon="8.120990">
			 <ele>479</ele>
			<time>2017-11-10T21:52:30Z</time>
			</trkpt>
		
			<trkpt lat="44.511250" lon="8.120910">
			 <ele>482</ele>
			<time>2017-11-10T21:54:30Z</time>
			</trkpt>
		
			<trkpt lat="44.511110" lon="8.120830">
			 <ele>484</ele>
			<time>2017-11-10T21:56:30Z</time>
			</trkpt>
		
			<trkpt lat="44.510970" lon="8.120790">
			 <ele>485</ele>
			<time>2017-11-10T21:58:30Z</time>
			</trkpt>
		
			<trkpt lat="44.510870" lon="8.120780">
			 <ele>484</ele>
			<time>2017-11-10T22:00:30Z</time>
			</trkpt>
		
			<trkpt lat="44.510740" lon="8.120780">
			 <ele>480</ele>
			<time>2017-11-10T22:02:30Z</time>
			</trkpt>
		
			<trkpt lat="44.510660" lon="8.120790">
			 <ele>477</ele>
			<time>2017-11-10T22:04:30Z</time>
			</trkpt>
		
			<trkpt lat="44.510600" lon="8.120800">
			 <ele>474</ele>
			<time>2017-11-10T22:06:30Z</time>
			</trkpt>
		
			<trkpt lat="44.510520" lon="8.120790">
			 <ele>472</ele>
			<time>2017-11-10T22:08:30Z</time>
			</trkpt>
		
			<trkpt lat="44.510480" lon="8.120740">
			 <ele>471</ele>
			<time>2017-11-10T22:10:30Z</time>
			</trkpt>
		
			<trkpt lat="44.510450" lon="8.120680">
			 <ele>472</ele>
			<time>2017-11-10T22:12:30Z</time>
			</trkpt>
		
			<trkpt lat="44.510440" lon="8.120570">
			 <ele>474</ele>
			<time>2017-11-10T22:14:30Z</time>
			</trkpt>
		
			<trkpt lat="44.510420" lon="8.120410">
			 <ele>476</ele>
			<time>2017-11-10T22:16:30Z</time>
			</trkpt>
		
			<trkpt lat="44.510410" lon="8.120270">
			 <ele>479</ele>
			<time>2017-11-10T22:18:30Z</time>
			</trkpt>
		
			<trkpt lat="44.510390" lon="8.120120">
			 <ele>481</ele>
			<time>2017-11-10T22:20:30Z</time>
			</trkpt>
		
			<trkpt lat="44.510370" lon="8.120000">
			 <ele>482</ele>
			<time>2017-11-10T22:22:30Z</time>
			</trkpt>
		
			<trkpt lat="44.510380" lon="8.119860">
			 <ele>484</ele>
			<time>2017-11-10T22:24:30Z</time>
			</trkpt>
		
			<trkpt lat="44.510400" lon="8.119680">
			 <ele>486</ele>
			<time>2017-11-10T22:26:30Z</time>
			</trkpt>
		
			<trkpt lat="44.510420" lon="8.119450">
			 <ele>489</ele>
			<time>2017-11-10T22:28:30Z</time>
			</trkpt>
		
			<trkpt lat="44.510470" lon="8.119260">
			 <ele>493</ele>
			<time>2017-11-10T22:30:30Z</time>
			</trkpt>
		
			<trkpt lat="44.510530" lon="8.119130">
			 <ele>497</ele>
			<time>2017-11-10T22:32:30Z</time>
			</trkpt>
		
			<trkpt lat="44.510660" lon="8.118940">
			 <ele>504</ele>
			<time>2017-11-10T22:34:30Z</time>
			</trkpt>
		
			<trkpt lat="44.510940" lon="8.118520">
			 <ele>514</ele>
			<time>2017-11-10T22:36:30Z</time>
			</trkpt>
		
			<trkpt lat="44.511280" lon="8.118070">
			 <ele>532</ele>
			<time>2017-11-10T22:38:30Z</time>
			</trkpt>
		
			<trkpt lat="44.511330" lon="8.117970">
			 <ele>535</ele>
			<time>2017-11-10T22:40:30Z</time>
			</trkpt>
		
			<trkpt lat="44.511330" lon="8.117910">
			 <ele>536</ele>
			<time>2017-11-10T22:42:30Z</time>
			</trkpt>
		
			<trkpt lat="44.511320" lon="8.117840">
			 <ele>536</ele>
			<time>2017-11-10T22:44:30Z</time>
			</trkpt>
		
			<trkpt lat="44.511300" lon="8.117800">
			 <ele>536</ele>
			<time>2017-11-10T22:46:30Z</time>
			</trkpt>
		
			<trkpt lat="44.511230" lon="8.117720">
			 <ele>535</ele>
			<time>2017-11-10T22:48:30Z</time>
			</trkpt>
		
			<trkpt lat="44.510890" lon="8.117470">
			 <ele>532</ele>
			<time>2017-11-10T22:50:30Z</time>
			</trkpt>
		
			<trkpt lat="44.510840" lon="8.117410">
			 <ele>533</ele>
			<time>2017-11-10T22:52:30Z</time>
			</trkpt>
		
			<trkpt lat="44.510840" lon="8.117350">
			 <ele>534</ele>
			<time>2017-11-10T22:54:30Z</time>
			</trkpt>
		
			<trkpt lat="44.510850" lon="8.117320">
			 <ele>535</ele>
			<time>2017-11-10T22:56:30Z</time>
			</trkpt>
		
			<trkpt lat="44.510890" lon="8.117310">
			 <ele>536</ele>
			<time>2017-11-10T22:58:30Z</time>
			</trkpt>
		
			<trkpt lat="44.510960" lon="8.117320">
			 <ele>538</ele>
			<time>2017-11-10T23:00:30Z</time>
			</trkpt>
		
			<trkpt lat="44.511050" lon="8.117360">
			 <ele>539</ele>
			<time>2017-11-10T23:02:30Z</time>
			</trkpt>
		
			<trkpt lat="44.511170" lon="8.117400">
			 <ele>540</ele>
			<time>2017-11-10T23:04:30Z</time>
			</trkpt>
		
			<trkpt lat="44.511340" lon="8.117440">
			 <ele>543</ele>
			<time>2017-11-10T23:06:30Z</time>
			</trkpt>
		
			<trkpt lat="44.511470" lon="8.117460">
			 <ele>545</ele>
			<time>2017-11-10T23:08:30Z</time>
			</trkpt>
		
			<trkpt lat="44.511570" lon="8.117440">
			 <ele>548</ele>
			<time>2017-11-10T23:10:30Z</time>
			</trkpt>
		
			<trkpt lat="44.511740" lon="8.117430">
			 <ele>553</ele>
			<time>2017-11-10T23:12:30Z</time>
			</trkpt>
		
			<trkpt lat="44.511800" lon="8.117440">
			 <ele>555</ele>
			<time>2017-11-10T23:14:30Z</time>
			</trkpt>
		
			<trkpt lat="44.511830" lon="8.117470">
			 <ele>555</ele>
			<time>2017-11-10T23:16:30Z</time>
			</trkpt>
		
			<trkpt lat="44.511870" lon="8.117550">
			 <ele>556</ele>
			<time>2017-11-10T23:18:30Z</time>
			</trkpt>
		
			<trkpt lat="44.511880" lon="8.117630">
			 <ele>557</ele>
			<time>2017-11-10T23:20:30Z</time>
			</trkpt>
		
			<trkpt lat="44.511880" lon="8.117680">
			 <ele>557</ele>
			<time>2017-11-10T23:22:30Z</time>
			</trkpt>
		
			<trkpt lat="44.511890" lon="8.117750">
			 <ele>557</ele>
			<time>2017-11-10T23:24:30Z</time>
			</trkpt>
		
			<trkpt lat="44.511900" lon="8.117790">
			 <ele>557</ele>
			<time>2017-11-10T23:26:30Z</time>
			</trkpt>
		
			<trkpt lat="44.511910" lon="8.117810">
			 <ele>558</ele>
			<time>2017-11-10T23:28:30Z</time>
			</trkpt>
		
			<trkpt lat="44.511930" lon="8.117820">
			 <ele>558</ele>
			<time>2017-11-10T23:30:30Z</time>
			</trkpt>
		
			<trkpt lat="44.511950" lon="8.117830">
			 <ele>559</ele>
			<time>2017-11-10T23:32:30Z</time>
			</trkpt>
		
			<trkpt lat="44.511970" lon="8.117810">
			 <ele>560</ele>
			<time>2017-11-10T23:34:30Z</time>
			</trkpt>
		
			<trkpt lat="44.512000" lon="8.117770">
			 <ele>561</ele>
			<time>2017-11-10T23:36:30Z</time>
			</trkpt>
		
			<trkpt lat="44.512020" lon="8.117650">
			 <ele>562</ele>
			<time>2017-11-10T23:38:30Z</time>
			</trkpt>
		
			<trkpt lat="44.512020" lon="8.117550">
			 <ele>562</ele>
			<time>2017-11-10T23:40:30Z</time>
			</trkpt>
		
			<trkpt lat="44.512010" lon="8.117390">
			 <ele>564</ele>
			<time>2017-11-10T23:42:30Z</time>
			</trkpt>
		
			<trkpt lat="44.511980" lon="8.117280">
			 <ele>566</ele>
			<time>2017-11-10T23:44:30Z</time>
			</trkpt>
		
			<trkpt lat="44.511880" lon="8.117120">
			 <ele>566</ele>
			<time>2017-11-10T23:46:30Z</time>
			</trkpt>
		
			<trkpt lat="44.511740" lon="8.116970">
			 <ele>566</ele>
			<time>2017-11-10T23:48:30Z</time>
			</trkpt>
		
			<trkpt lat="44.511580" lon="8.116810">
			 <ele>567</ele>
			<time>2017-11-10T23:50:30Z</time>
			</trkpt>
		
			<trkpt lat="44.511330" lon="8.116650">
			 <ele>565</ele>
			<time>2017-11-10T23:52:30Z</time>
			</trkpt>
		
			<trkpt lat="44.511180" lon="8.116570">
			 <ele>563</ele>
			<time>2017-11-10T23:54:30Z</time>
			</trkpt>
		
			<trkpt lat="44.511110" lon="8.116510">
			 <ele>562</ele>
			<time>2017-11-10T23:56:30Z</time>
			</trkpt>
		
			<trkpt lat="44.511080" lon="8.116440">
			 <ele>563</ele>
			<time>2017-11-10T23:58:30Z</time>
			</trkpt>
		
			<trkpt lat="44.511080" lon="8.116400">
			 <ele>564</ele>
			<time>2017-11-11T00:00:30Z</time>
			</trkpt>
		
			<trkpt lat="44.511070" lon="8.116270">
			 <ele>566</ele>
			<time>2017-11-11T00:02:30Z</time>
			</trkpt>
		
			<trkpt lat="44.511070" lon="8.116130">
			 <ele>569</ele>
			<time>2017-11-11T00:04:30Z</time>
			</trkpt>
		
			<trkpt lat="44.511070" lon="8.115910">
			 <ele>574</ele>
			<time>2017-11-11T00:06:30Z</time>
			</trkpt>
		
			<trkpt lat="44.511070" lon="8.115570">
			 <ele>581</ele>
			<time>2017-11-11T00:08:30Z</time>
			</trkpt>
		
			<trkpt lat="44.511060" lon="8.115220">
			 <ele>588</ele>
			<time>2017-11-11T00:10:30Z</time>
			</trkpt>
		
			<trkpt lat="44.511030" lon="8.115060">
			 <ele>590</ele>
			<time>2017-11-11T00:12:30Z</time>
			</trkpt>
		
			<trkpt lat="44.510950" lon="8.114910">
			 <ele>591</ele>
			<time>2017-11-11T00:14:30Z</time>
			</trkpt>
		
			<trkpt lat="44.510840" lon="8.114840">
			 <ele>589</ele>
			<time>2017-11-11T00:16:30Z</time>
			</trkpt>
		
			<trkpt lat="44.510590" lon="8.114760">
			 <ele>593</ele>
			<time>2017-11-11T00:18:30Z</time>
			</trkpt>
		
			<trkpt lat="44.510280" lon="8.114700">
			 <ele>596</ele>
			<time>2017-11-11T00:20:30Z</time>
			</trkpt>
		
			<trkpt lat="44.510000" lon="8.114670">
			 <ele>598</ele>
			<time>2017-11-11T00:22:30Z</time>
			</trkpt>
		
			<trkpt lat="44.509790" lon="8.114610">
			 <ele>602</ele>
			<time>2017-11-11T00:24:30Z</time>
			</trkpt>
		
			<trkpt lat="44.509610" lon="8.114620">
			 <ele>604</ele>
			<time>2017-11-11T00:26:30Z</time>
			</trkpt>
		
			<trkpt lat="44.509370" lon="8.114690">
			 <ele>605</ele>
			<time>2017-11-11T00:28:30Z</time>
			</trkpt>
		
			<trkpt lat="44.509110" lon="8.114800">
			 <ele>604</ele>
			<time>2017-11-11T00:30:30Z</time>
			</trkpt>
		
			<trkpt lat="44.508640" lon="8.115080">
			 <ele>597</ele>
			<time>2017-11-11T00:32:30Z</time>
			</trkpt>
		
			<trkpt lat="44.508550" lon="8.115130">
			 <ele>596</ele>
			<time>2017-11-11T00:34:30Z</time>
			</trkpt>
		
			<trkpt lat="44.508500" lon="8.115140">
			 <ele>596</ele>
			<time>2017-11-11T00:36:30Z</time>
			</trkpt>
		
			<trkpt lat="44.508460" lon="8.115120">
			 <ele>597</ele>
			<time>2017-11-11T00:38:30Z</time>
			</trkpt>
		
			<trkpt lat="44.508420" lon="8.115100">
			 <ele>597</ele>
			<time>2017-11-11T00:40:30Z</time>
			</trkpt>
		
			<trkpt lat="44.508410" lon="8.115060">
			 <ele>597</ele>
			<time>2017-11-11T00:42:30Z</time>
			</trkpt>
		
			<trkpt lat="44.508400" lon="8.114980">
			 <ele>598</ele>
			<time>2017-11-11T00:44:30Z</time>
			</trkpt>
		
			<trkpt lat="44.508390" lon="8.114880">
			 <ele>599</ele>
			<time>2017-11-11T00:46:30Z</time>
			</trkpt>
		
			<trkpt lat="44.508400" lon="8.114720">
			 <ele>600</ele>
			<time>2017-11-11T00:48:30Z</time>
			</trkpt>
		
			<trkpt lat="44.508450" lon="8.114430">
			 <ele>602</ele>
			<time>2017-11-11T00:50:30Z</time>
			</trkpt>
		
			<trkpt lat="44.508460" lon="8.114260">
			 <ele>604</ele>
			<time>2017-11-11T00:52:30Z</time>
			</trkpt>
		
			<trkpt lat="44.508440" lon="8.114110">
			 <ele>604</ele>
			<time>2017-11-11T00:54:30Z</time>
			</trkpt>
		
			<trkpt lat="44.508400" lon="8.113930">
			 <ele>604</ele>
			<time>2017-11-11T00:56:30Z</time>
			</trkpt>
		
			<trkpt lat="44.508340" lon="8.113690">
			 <ele>603</ele>
			<time>2017-11-11T00:58:30Z</time>
			</trkpt>
		
			<trkpt lat="44.508280" lon="8.113420">
			 <ele>603</ele>
			<time>2017-11-11T01:00:30Z</time>
			</trkpt>
		
			<trkpt lat="44.508210" lon="8.113280">
			 <ele>600</ele>
			<time>2017-11-11T01:02:30Z</time>
			</trkpt>
		
			<trkpt lat="44.508150" lon="8.113140">
			 <ele>596</ele>
			<time>2017-11-11T01:04:30Z</time>
			</trkpt>
		
			<trkpt lat="44.508130" lon="8.113090">
			 <ele>595</ele>
			<time>2017-11-11T01:06:30Z</time>
			</trkpt>
		
			<trkpt lat="44.508130" lon="8.113040">
			 <ele>594</ele>
			<time>2017-11-11T01:08:30Z</time>
			</trkpt>
		
			<trkpt lat="44.508140" lon="8.113000">
			 <ele>594</ele>
			<time>2017-11-11T01:10:30Z</time>
			</trkpt>
		
			<trkpt lat="44.508180" lon="8.112950">
			 <ele>594</ele>
			<time>2017-11-11T01:12:30Z</time>
			</trkpt>
		
			<trkpt lat="44.508250" lon="8.112890">
			 <ele>596</ele>
			<time>2017-11-11T01:14:30Z</time>
			</trkpt>
		
			<trkpt lat="44.508370" lon="8.112810">
			 <ele>598</ele>
			<time>2017-11-11T01:16:30Z</time>
			</trkpt>
		
			<trkpt lat="44.508610" lon="8.112650">
			 <ele>601</ele>
			<time>2017-11-11T01:18:30Z</time>
			</trkpt>
		
			<trkpt lat="44.508790" lon="8.112520">
			 <ele>603</ele>
			<time>2017-11-11T01:20:30Z</time>
			</trkpt>
		
			<trkpt lat="44.508980" lon="8.112350">
			 <ele>603</ele>
			<time>2017-11-11T01:22:30Z</time>
			</trkpt>
		
			<trkpt lat="44.509200" lon="8.112200">
			 <ele>604</ele>
			<time>2017-11-11T01:24:30Z</time>
			</trkpt>
		
			<trkpt lat="44.509400" lon="8.112030">
			 <ele>605</ele>
			<time>2017-11-11T01:26:30Z</time>
			</trkpt>
		
			<trkpt lat="44.509470" lon="8.111930">
			 <ele>604</ele>
			<time>2017-11-11T01:28:30Z</time>
			</trkpt>
		
			<trkpt lat="44.509530" lon="8.111830">
			 <ele>603</ele>
			<time>2017-11-11T01:30:30Z</time>
			</trkpt>
		
			<trkpt lat="44.509620" lon="8.111680">
			 <ele>602</ele>
			<time>2017-11-11T01:32:30Z</time>
			</trkpt>
		
			<trkpt lat="44.509720" lon="8.111520">
			 <ele>603</ele>
			<time>2017-11-11T01:34:30Z</time>
			</trkpt>
		
			<trkpt lat="44.509780" lon="8.111450">
			 <ele>604</ele>
			<time>2017-11-11T01:36:30Z</time>
			</trkpt>
		
			<trkpt lat="44.509850" lon="8.111390">
			 <ele>605</ele>
			<time>2017-11-11T01:38:30Z</time>
			</trkpt>
		
			<trkpt lat="44.509980" lon="8.111230">
			 <ele>607</ele>
			<time>2017-11-11T01:40:30Z</time>
			</trkpt>
		
			<trkpt lat="44.510060" lon="8.111120">
			 <ele>609</ele>
			<time>2017-11-11T01:42:30Z</time>
			</trkpt>
		
			<trkpt lat="44.510130" lon="8.110980">
			 <ele>611</ele>
			<time>2017-11-11T01:44:30Z</time>
			</trkpt>
		
			<trkpt lat="44.510210" lon="8.110760">
			 <ele>614</ele>
			<time>2017-11-11T01:46:30Z</time>
			</trkpt>
		
			<trkpt lat="44.510230" lon="8.110660">
			 <ele>617</ele>
			<time>2017-11-11T01:48:30Z</time>
			</trkpt>
		
			<trkpt lat="44.510230" lon="8.110580">
			 <ele>618</ele>
			<time>2017-11-11T01:50:30Z</time>
			</trkpt>
		
			<trkpt lat="44.510220" lon="8.110490">
			 <ele>619</ele>
			<time>2017-11-11T01:52:30Z</time>
			</trkpt>
		
			<trkpt lat="44.510160" lon="8.110300">
			 <ele>620</ele>
			<time>2017-11-11T01:54:30Z</time>
			</trkpt>
		
			<trkpt lat="44.510080" lon="8.110130">
			 <ele>619</ele>
			<time>2017-11-11T01:56:30Z</time>
			</trkpt>
		
			<trkpt lat="44.509960" lon="8.109910">
			 <ele>619</ele>
			<time>2017-11-11T01:58:30Z</time>
			</trkpt>
		
			<trkpt lat="44.509900" lon="8.109800">
			 <ele>619</ele>
			<time>2017-11-11T02:00:30Z</time>
			</trkpt>
		
			<trkpt lat="44.509900" lon="8.109800">
			 <ele>619</ele>
			<time>2017-11-11T02:02:30Z</time>
			</trkpt>
		
			<trkpt lat="44.509910" lon="8.109740">
			 <ele>621</ele>
			<time>2017-11-11T02:04:30Z</time>
			</trkpt>
		
			<trkpt lat="44.509900" lon="8.109690">
			 <ele>622</ele>
			<time>2017-11-11T02:06:30Z</time>
			</trkpt>
		
			<trkpt lat="44.509780" lon="8.109490">
			 <ele>623</ele>
			<time>2017-11-11T02:08:30Z</time>
			</trkpt>
		
			<trkpt lat="44.509610" lon="8.109210">
			 <ele>624</ele>
			<time>2017-11-11T02:10:30Z</time>
			</trkpt>
		
			<trkpt lat="44.509550" lon="8.109080">
			 <ele>625</ele>
			<time>2017-11-11T02:12:30Z</time>
			</trkpt>
		
			<trkpt lat="44.509500" lon="8.108950">
			 <ele>627</ele>
			<time>2017-11-11T02:14:30Z</time>
			</trkpt>
		
			<trkpt lat="44.509440" lon="8.108790">
			 <ele>630</ele>
			<time>2017-11-11T02:16:30Z</time>
			</trkpt>
		
			<trkpt lat="44.509380" lon="8.108680">
			 <ele>631</ele>
			<time>2017-11-11T02:18:30Z</time>
			</trkpt>
		
			<trkpt lat="44.509270" lon="8.108540">
			 <ele>630</ele>
			<time>2017-11-11T02:20:30Z</time>
			</trkpt>
		
			<trkpt lat="44.509120" lon="8.108360">
			 <ele>630</ele>
			<time>2017-11-11T02:22:30Z</time>
			</trkpt>
		
			<trkpt lat="44.509050" lon="8.108230">
			 <ele>630</ele>
			<time>2017-11-11T02:24:30Z</time>
			</trkpt>
		
			<trkpt lat="44.508950" lon="8.108070">
			 <ele>630</ele>
			<time>2017-11-11T02:26:30Z</time>
			</trkpt>
		
			<trkpt lat="44.508890" lon="8.107980">
			 <ele>629</ele>
			<time>2017-11-11T02:28:30Z</time>
			</trkpt>
		
			<trkpt lat="44.508830" lon="8.107920">
			 <ele>628</ele>
			<time>2017-11-11T02:30:30Z</time>
			</trkpt>
		
			<trkpt lat="44.508770" lon="8.107880">
			 <ele>626</ele>
			<time>2017-11-11T02:32:30Z</time>
			</trkpt>
		
			<trkpt lat="44.508720" lon="8.107840">
			 <ele>625</ele>
			<time>2017-11-11T02:34:30Z</time>
			</trkpt>
		
			<trkpt lat="44.508660" lon="8.107780">
			 <ele>624</ele>
			<time>2017-11-11T02:36:30Z</time>
			</trkpt>
		
			<trkpt lat="44.508630" lon="8.107710">
			 <ele>624</ele>
			<time>2017-11-11T02:38:30Z</time>
			</trkpt>
		
			<trkpt lat="44.508610" lon="8.107610">
			 <ele>625</ele>
			<time>2017-11-11T02:40:30Z</time>
			</trkpt>
		
			<trkpt lat="44.508610" lon="8.107530">
			 <ele>626</ele>
			<time>2017-11-11T02:42:30Z</time>
			</trkpt>
		
			<trkpt lat="44.508620" lon="8.107470">
			 <ele>626</ele>
			<time>2017-11-11T02:44:30Z</time>
			</trkpt>
		
			<trkpt lat="44.508640" lon="8.107420">
			 <ele>625</ele>
			<time>2017-11-11T02:46:30Z</time>
			</trkpt>
		
			<trkpt lat="44.508690" lon="8.107380">
			 <ele>627</ele>
			<time>2017-11-11T02:48:30Z</time>
			</trkpt>
		
			<trkpt lat="44.508750" lon="8.107340">
			 <ele>628</ele>
			<time>2017-11-11T02:50:30Z</time>
			</trkpt>
		
			<trkpt lat="44.508860" lon="8.107280">
			 <ele>631</ele>
			<time>2017-11-11T02:52:30Z</time>
			</trkpt>
		
			<trkpt lat="44.508960" lon="8.107220">
			 <ele>633</ele>
			<time>2017-11-11T02:54:30Z</time>
			</trkpt>
		
			<trkpt lat="44.509040" lon="8.107170">
			 <ele>635</ele>
			<time>2017-11-11T02:56:30Z</time>
			</trkpt>
		
			<trkpt lat="44.509100" lon="8.107110">
			 <ele>637</ele>
			<time>2017-11-11T02:58:30Z</time>
			</trkpt>
		
			<trkpt lat="44.509300" lon="8.106800">
			 <ele>638</ele>
			<time>2017-11-11T03:00:30Z</time>
			</trkpt>
		
			<trkpt lat="44.509480" lon="8.106510">
			 <ele>640</ele>
			<time>2017-11-11T03:02:30Z</time>
			</trkpt>
		
			<trkpt lat="44.509560" lon="8.106370">
			 <ele>641</ele>
			<time>2017-11-11T03:04:30Z</time>
			</trkpt>
		
			<trkpt lat="44.509610" lon="8.106240">
			 <ele>641</ele>
			<time>2017-11-11T03:06:30Z</time>
			</trkpt>
		
			<trkpt lat="44.509630" lon="8.106140">
			 <ele>640</ele>
			<time>2017-11-11T03:08:30Z</time>
			</trkpt>
		
			<trkpt lat="44.509650" lon="8.105970">
			 <ele>638</ele>
			<time>2017-11-11T03:10:30Z</time>
			</trkpt>
		
			<trkpt lat="44.509650" lon="8.105830">
			 <ele>636</ele>
			<time>2017-11-11T03:12:30Z</time>
			</trkpt>
		
			<trkpt lat="44.509660" lon="8.105770">
			 <ele>636</ele>
			<time>2017-11-11T03:14:30Z</time>
			</trkpt>
		
			<trkpt lat="44.509720" lon="8.105580">
			 <ele>635</ele>
			<time>2017-11-11T03:16:30Z</time>
			</trkpt>
		
			<trkpt lat="44.509830" lon="8.105330">
			 <ele>636</ele>
			<time>2017-11-11T03:18:30Z</time>
			</trkpt>
		
			<trkpt lat="44.510170" lon="8.104730">
			 <ele>639</ele>
			<time>2017-11-11T03:20:30Z</time>
			</trkpt>
		
			<trkpt lat="44.510310" lon="8.104500">
			 <ele>641</ele>
			<time>2017-11-11T03:22:30Z</time>
			</trkpt>
		
			<trkpt lat="44.510400" lon="8.104340">
			 <ele>642</ele>
			<time>2017-11-11T03:24:30Z</time>
			</trkpt>
		
			<trkpt lat="44.510440" lon="8.104270">
			 <ele>643</ele>
			<time>2017-11-11T03:26:30Z</time>
			</trkpt>
		
			<trkpt lat="44.510450" lon="8.104170">
			 <ele>642</ele>
			<time>2017-11-11T03:28:30Z</time>
			</trkpt>
		
			<trkpt lat="44.510480" lon="8.103990">
			 <ele>641</ele>
			<time>2017-11-11T03:30:30Z</time>
			</trkpt>
		
			<trkpt lat="44.510490" lon="8.103800">
			 <ele>639</ele>
			<time>2017-11-11T03:32:30Z</time>
			</trkpt>
		
			<trkpt lat="44.510520" lon="8.103640">
			 <ele>638</ele>
			<time>2017-11-11T03:34:30Z</time>
			</trkpt>
		
			<trkpt lat="44.510540" lon="8.103550">
			 <ele>638</ele>
			<time>2017-11-11T03:36:30Z</time>
			</trkpt>
		
			<trkpt lat="44.510600" lon="8.103440">
			 <ele>639</ele>
			<time>2017-11-11T03:38:30Z</time>
			</trkpt>
		
			<trkpt lat="44.510690" lon="8.103320">
			 <ele>640</ele>
			<time>2017-11-11T03:40:30Z</time>
			</trkpt>
		
			<trkpt lat="44.510810" lon="8.103200">
			 <ele>642</ele>
			<time>2017-11-11T03:42:30Z</time>
			</trkpt>
		
			<trkpt lat="44.510910" lon="8.103100">
			 <ele>642</ele>
			<time>2017-11-11T03:44:30Z</time>
			</trkpt>
		
			<trkpt lat="44.511020" lon="8.103020">
			 <ele>644</ele>
			<time>2017-11-11T03:46:30Z</time>
			</trkpt>
		
			<trkpt lat="44.511120" lon="8.102960">
			 <ele>646</ele>
			<time>2017-11-11T03:48:30Z</time>
			</trkpt>
		
			<trkpt lat="44.511410" lon="8.102790">
			 <ele>652</ele>
			<time>2017-11-11T03:50:30Z</time>
			</trkpt>
		
			<trkpt lat="44.511470" lon="8.102760">
			 <ele>653</ele>
			<time>2017-11-11T03:52:30Z</time>
			</trkpt>
		
			<trkpt lat="44.511540" lon="8.102750">
			 <ele>655</ele>
			<time>2017-11-11T03:54:30Z</time>
			</trkpt>
		
			<trkpt lat="44.511600" lon="8.102720">
			 <ele>657</ele>
			<time>2017-11-11T03:56:30Z</time>
			</trkpt>
		
			<trkpt lat="44.511660" lon="8.102670">
			 <ele>658</ele>
			<time>2017-11-11T03:58:30Z</time>
			</trkpt>
		
			<trkpt lat="44.511700" lon="8.102610">
			 <ele>658</ele>
			<time>2017-11-11T04:00:30Z</time>
			</trkpt>
		
			<trkpt lat="44.511780" lon="8.102460">
			 <ele>658</ele>
			<time>2017-11-11T04:02:30Z</time>
			</trkpt>
		
			<trkpt lat="44.511840" lon="8.102280">
			 <ele>657</ele>
			<time>2017-11-11T04:04:30Z</time>
			</trkpt>
		
			<trkpt lat="44.511850" lon="8.102160">
			 <ele>655</ele>
			<time>2017-11-11T04:06:30Z</time>
			</trkpt>
		
			<trkpt lat="44.511870" lon="8.102040">
			 <ele>654</ele>
			<time>2017-11-11T04:08:30Z</time>
			</trkpt>
		
			<trkpt lat="44.511880" lon="8.101980">
			 <ele>653</ele>
			<time>2017-11-11T04:10:30Z</time>
			</trkpt>
		
			<trkpt lat="44.511920" lon="8.101940">
			 <ele>654</ele>
			<time>2017-11-11T04:12:30Z</time>
			</trkpt>
		
			<trkpt lat="44.512020" lon="8.101870">
			 <ele>657</ele>
			<time>2017-11-11T04:14:30Z</time>
			</trkpt>
		
			<trkpt lat="44.512160" lon="8.101790">
			 <ele>661</ele>
			<time>2017-11-11T04:16:30Z</time>
			</trkpt>
		
			<trkpt lat="44.512230" lon="8.101750">
			 <ele>663</ele>
			<time>2017-11-11T04:18:30Z</time>
			</trkpt>
		
			<trkpt lat="44.512320" lon="8.101700">
			 <ele>665</ele>
			<time>2017-11-11T04:20:30Z</time>
			</trkpt>
		
			<trkpt lat="44.512410" lon="8.101610">
			 <ele>667</ele>
			<time>2017-11-11T04:22:30Z</time>
			</trkpt>
		
			<trkpt lat="44.512550" lon="8.101490">
			 <ele>670</ele>
			<time>2017-11-11T04:24:30Z</time>
			</trkpt>
		
			<trkpt lat="44.512600" lon="8.101430">
			 <ele>671</ele>
			<time>2017-11-11T04:26:30Z</time>
			</trkpt>
		
			<trkpt lat="44.512840" lon="8.101240">
			 <ele>675</ele>
			<time>2017-11-11T04:28:30Z</time>
			</trkpt>
		
			<trkpt lat="44.512960" lon="8.101160">
			 <ele>677</ele>
			<time>2017-11-11T04:30:30Z</time>
			</trkpt>
		
			<trkpt lat="44.513030" lon="8.101130">
			 <ele>679</ele>
			<time>2017-11-11T04:32:30Z</time>
			</trkpt>
		
			<trkpt lat="44.513100" lon="8.101100">
			 <ele>681</ele>
			<time>2017-11-11T04:34:30Z</time>
			</trkpt>
		
			<trkpt lat="44.513130" lon="8.101070">
			 <ele>681</ele>
			<time>2017-11-11T04:36:30Z</time>
			</trkpt>
		
			<trkpt lat="44.513150" lon="8.101050">
			 <ele>682</ele>
			<time>2017-11-11T04:38:30Z</time>
			</trkpt>
		
			<trkpt lat="44.513170" lon="8.101020">
			 <ele>682</ele>
			<time>2017-11-11T04:40:30Z</time>
			</trkpt>
		
			<trkpt lat="44.513180" lon="8.100990">
			 <ele>682</ele>
			<time>2017-11-11T04:42:30Z</time>
			</trkpt>
		
			<trkpt lat="44.513190" lon="8.100950">
			 <ele>682</ele>
			<time>2017-11-11T04:44:30Z</time>
			</trkpt>
		
			<trkpt lat="44.513190" lon="8.100920">
			 <ele>682</ele>
			<time>2017-11-11T04:46:30Z</time>
			</trkpt>
		
			<trkpt lat="44.513190" lon="8.100900">
			 <ele>682</ele>
			<time>2017-11-11T04:48:30Z</time>
			</trkpt>
		
			<trkpt lat="44.513180" lon="8.100880">
			 <ele>681</ele>
			<time>2017-11-11T04:50:30Z</time>
			</trkpt>
		
			<trkpt lat="44.513160" lon="8.100830">
			 <ele>680</ele>
			<time>2017-11-11T04:52:30Z</time>
			</trkpt>
		
			<trkpt lat="44.513080" lon="8.100680">
			 <ele>681</ele>
			<time>2017-11-11T04:54:30Z</time>
			</trkpt>
		
			<trkpt lat="44.512990" lon="8.100530">
			 <ele>681</ele>
			<time>2017-11-11T04:56:30Z</time>
			</trkpt>
		
			<trkpt lat="44.512830" lon="8.100280">
			 <ele>680</ele>
			<time>2017-11-11T04:58:30Z</time>
			</trkpt>
		
			<trkpt lat="44.512650" lon="8.099990">
			 <ele>678</ele>
			<time>2017-11-11T05:00:30Z</time>
			</trkpt>
		
			<trkpt lat="44.512490" lon="8.099750">
			 <ele>677</ele>
			<time>2017-11-11T05:02:30Z</time>
			</trkpt>
		
			<trkpt lat="44.512380" lon="8.099590">
			 <ele>676</ele>
			<time>2017-11-11T05:04:30Z</time>
			</trkpt>
		
			<trkpt lat="44.512240" lon="8.099420">
			 <ele>674</ele>
			<time>2017-11-11T05:06:30Z</time>
			</trkpt>
		
			<trkpt lat="44.512150" lon="8.099300">
			 <ele>672</ele>
			<time>2017-11-11T05:08:30Z</time>
			</trkpt>
		
			<trkpt lat="44.512110" lon="8.099230">
			 <ele>672</ele>
			<time>2017-11-11T05:10:30Z</time>
			</trkpt>
		
			<trkpt lat="44.512100" lon="8.099180">
			 <ele>672</ele>
			<time>2017-11-11T05:12:30Z</time>
			</trkpt>
		
			<trkpt lat="44.512090" lon="8.099140">
			 <ele>672</ele>
			<time>2017-11-11T05:14:30Z</time>
			</trkpt>
		
			<trkpt lat="44.512080" lon="8.099080">
			 <ele>671</ele>
			<time>2017-11-11T05:16:30Z</time>
			</trkpt>
		
			<trkpt lat="44.512080" lon="8.099050">
			 <ele>671</ele>
			<time>2017-11-11T05:18:30Z</time>
			</trkpt>
		
			<trkpt lat="44.512090" lon="8.098980">
			 <ele>671</ele>
			<time>2017-11-11T05:20:30Z</time>
			</trkpt>
		
			<trkpt lat="44.512100" lon="8.098930">
			 <ele>671</ele>
			<time>2017-11-11T05:22:30Z</time>
			</trkpt>
		
			<trkpt lat="44.512110" lon="8.098890">
			 <ele>671</ele>
			<time>2017-11-11T05:24:30Z</time>
			</trkpt>
		
			<trkpt lat="44.512120" lon="8.098850">
			 <ele>672</ele>
			<time>2017-11-11T05:26:30Z</time>
			</trkpt>
		
			<trkpt lat="44.512130" lon="8.098790">
			 <ele>672</ele>
			<time>2017-11-11T05:28:30Z</time>
			</trkpt>
		
			<trkpt lat="44.512180" lon="8.098680">
			 <ele>673</ele>
			<time>2017-11-11T05:30:30Z</time>
			</trkpt>
		
			<trkpt lat="44.512230" lon="8.098540">
			 <ele>675</ele>
			<time>2017-11-11T05:32:30Z</time>
			</trkpt>
		
			<trkpt lat="44.512270" lon="8.098470">
			 <ele>676</ele>
			<time>2017-11-11T05:34:30Z</time>
			</trkpt>
		
			<trkpt lat="44.512310" lon="8.098380">
			 <ele>678</ele>
			<time>2017-11-11T05:36:30Z</time>
			</trkpt>
		
			<trkpt lat="44.512340" lon="8.098330">
			 <ele>679</ele>
			<time>2017-11-11T05:38:30Z</time>
			</trkpt>
		
			<trkpt lat="44.512360" lon="8.098300">
			 <ele>679</ele>
			<time>2017-11-11T05:40:30Z</time>
			</trkpt>
		
			<trkpt lat="44.512390" lon="8.098280">
			 <ele>680</ele>
			<time>2017-11-11T05:42:30Z</time>
			</trkpt>
		
			<trkpt lat="44.512410" lon="8.098260">
			 <ele>681</ele>
			<time>2017-11-11T05:44:30Z</time>
			</trkpt>
		
			<trkpt lat="44.512440" lon="8.098230">
			 <ele>681</ele>
			<time>2017-11-11T05:46:30Z</time>
			</trkpt>
		
			<trkpt lat="44.512480" lon="8.098210">
			 <ele>683</ele>
			<time>2017-11-11T05:48:30Z</time>
			</trkpt>
		
			<trkpt lat="44.512530" lon="8.098180">
			 <ele>684</ele>
			<time>2017-11-11T05:50:30Z</time>
			</trkpt>
		
			<trkpt lat="44.512610" lon="8.098140">
			 <ele>685</ele>
			<time>2017-11-11T05:52:30Z</time>
			</trkpt>
		
			<trkpt lat="44.512740" lon="8.098060">
			 <ele>687</ele>
			<time>2017-11-11T05:54:30Z</time>
			</trkpt>
		
			<trkpt lat="44.512840" lon="8.097980">
			 <ele>688</ele>
			<time>2017-11-11T05:56:30Z</time>
			</trkpt>
		
			<trkpt lat="44.513000" lon="8.097880">
			 <ele>690</ele>
			<time>2017-11-11T05:58:30Z</time>
			</trkpt>
		
			<trkpt lat="44.513040" lon="8.097870">
			 <ele>691</ele>
			<time>2017-11-11T06:00:30Z</time>
			</trkpt>
		
			<trkpt lat="44.513080" lon="8.097850">
			 <ele>692</ele>
			<time>2017-11-11T06:02:30Z</time>
			</trkpt>
		
			<trkpt lat="44.513210" lon="8.097820">
			 <ele>695</ele>
			<time>2017-11-11T06:04:30Z</time>
			</trkpt>
		
			<trkpt lat="44.513290" lon="8.097800">
			 <ele>696</ele>
			<time>2017-11-11T06:06:30Z</time>
			</trkpt>
		
			<trkpt lat="44.513370" lon="8.097760">
			 <ele>697</ele>
			<time>2017-11-11T06:08:30Z</time>
			</trkpt>
		
			<trkpt lat="44.513560" lon="8.097670">
			 <ele>699</ele>
			<time>2017-11-11T06:10:30Z</time>
			</trkpt>
		
			<trkpt lat="44.513810" lon="8.097560">
			 <ele>703</ele>
			<time>2017-11-11T06:12:30Z</time>
			</trkpt>
		
			<trkpt lat="44.513990" lon="8.097460">
			 <ele>705</ele>
			<time>2017-11-11T06:14:30Z</time>
			</trkpt>
		
			<trkpt lat="44.514160" lon="8.097370">
			 <ele>709</ele>
			<time>2017-11-11T06:16:30Z</time>
			</trkpt>
		
			<trkpt lat="44.514260" lon="8.097320">
			 <ele>711</ele>
			<time>2017-11-11T06:18:30Z</time>
			</trkpt>
		
			<trkpt lat="44.514340" lon="8.097270">
			 <ele>713</ele>
			<time>2017-11-11T06:20:30Z</time>
			</trkpt>
		
			<trkpt lat="44.514430" lon="8.097220">
			 <ele>715</ele>
			<time>2017-11-11T06:22:30Z</time>
			</trkpt>
		
			<trkpt lat="44.514500" lon="8.097170">
			 <ele>717</ele>
			<time>2017-11-11T06:24:30Z</time>
			</trkpt>
		
			<trkpt lat="44.514540" lon="8.097160">
			 <ele>718</ele>
			<time>2017-11-11T06:26:30Z</time>
			</trkpt>
		
			<trkpt lat="44.514570" lon="8.097150">
			 <ele>719</ele>
			<time>2017-11-11T06:28:30Z</time>
			</trkpt>
		
			<trkpt lat="44.514660" lon="8.097130">
			 <ele>721</ele>
			<time>2017-11-11T06:30:30Z</time>
			</trkpt>
		
			<trkpt lat="44.514750" lon="8.097110">
			 <ele>724</ele>
			<time>2017-11-11T06:32:30Z</time>
			</trkpt>
		
			<trkpt lat="44.514780" lon="8.097110">
			 <ele>725</ele>
			<time>2017-11-11T06:34:30Z</time>
			</trkpt>
		
			<trkpt lat="44.514810" lon="8.097090">
			 <ele>726</ele>
			<time>2017-11-11T06:36:30Z</time>
			</trkpt>
		
			<trkpt lat="44.514840" lon="8.097070">
			 <ele>727</ele>
			<time>2017-11-11T06:38:30Z</time>
			</trkpt>
		
			<trkpt lat="44.514880" lon="8.097040">
			 <ele>728</ele>
			<time>2017-11-11T06:40:30Z</time>
			</trkpt>
		
			<trkpt lat="44.514910" lon="8.097000">
			 <ele>729</ele>
			<time>2017-11-11T06:42:30Z</time>
			</trkpt>
		
			<trkpt lat="44.514920" lon="8.096950">
			 <ele>729</ele>
			<time>2017-11-11T06:44:30Z</time>
			</trkpt>
		
			<trkpt lat="44.514920" lon="8.096910">
			 <ele>729</ele>
			<time>2017-11-11T06:46:30Z</time>
			</trkpt>
		
			<trkpt lat="44.514920" lon="8.096870">
			 <ele>729</ele>
			<time>2017-11-11T06:48:30Z</time>
			</trkpt>
		
			<trkpt lat="44.514910" lon="8.096800">
			 <ele>728</ele>
			<time>2017-11-11T06:50:30Z</time>
			</trkpt>
		
			<trkpt lat="44.514880" lon="8.096640">
			 <ele>727</ele>
			<time>2017-11-11T06:52:30Z</time>
			</trkpt>
		
			<trkpt lat="44.514830" lon="8.096440">
			 <ele>729</ele>
			<time>2017-11-11T06:54:30Z</time>
			</trkpt>
		
			<trkpt lat="44.514800" lon="8.096230">
			 <ele>732</ele>
			<time>2017-11-11T06:56:30Z</time>
			</trkpt>
		
			<trkpt lat="44.514770" lon="8.096080">
			 <ele>734</ele>
			<time>2017-11-11T06:58:30Z</time>
			</trkpt>
		
			<trkpt lat="44.514750" lon="8.095990">
			 <ele>735</ele>
			<time>2017-11-11T07:00:30Z</time>
			</trkpt>
		
			<trkpt lat="44.514710" lon="8.095880">
			 <ele>736</ele>
			<time>2017-11-11T07:02:30Z</time>
			</trkpt>
		
			<trkpt lat="44.514650" lon="8.095730">
			 <ele>737</ele>
			<time>2017-11-11T07:04:30Z</time>
			</trkpt>
		
			<trkpt lat="44.514580" lon="8.095590">
			 <ele>737</ele>
			<time>2017-11-11T07:06:30Z</time>
			</trkpt>
		
			<trkpt lat="44.514490" lon="8.095430">
			 <ele>737</ele>
			<time>2017-11-11T07:08:30Z</time>
			</trkpt>
		
			<trkpt lat="44.514430" lon="8.095330">
			 <ele>737</ele>
			<time>2017-11-11T07:10:30Z</time>
			</trkpt>
		
			<trkpt lat="44.514400" lon="8.095260">
			 <ele>737</ele>
			<time>2017-11-11T07:12:30Z</time>
			</trkpt>
		
			<trkpt lat="44.514350" lon="8.095150">
			 <ele>738</ele>
			<time>2017-11-11T07:14:30Z</time>
			</trkpt>
		
			<trkpt lat="44.514310" lon="8.095070">
			 <ele>739</ele>
			<time>2017-11-11T07:16:30Z</time>
			</trkpt>
		
			<trkpt lat="44.514240" lon="8.094970">
			 <ele>738</ele>
			<time>2017-11-11T07:18:30Z</time>
			</trkpt>
		
			<trkpt lat="44.514190" lon="8.094900">
			 <ele>737</ele>
			<time>2017-11-11T07:20:30Z</time>
			</trkpt>
		
			<trkpt lat="44.514120" lon="8.094800">
			 <ele>736</ele>
			<time>2017-11-11T07:22:30Z</time>
			</trkpt>
		
			<trkpt lat="44.514070" lon="8.094740">
			 <ele>736</ele>
			<time>2017-11-11T07:24:30Z</time>
			</trkpt>
		
			<trkpt lat="44.514040" lon="8.094690">
			 <ele>735</ele>
			<time>2017-11-11T07:26:30Z</time>
			</trkpt>
		
			<trkpt lat="44.514020" lon="8.094670">
			 <ele>735</ele>
			<time>2017-11-11T07:28:30Z</time>
			</trkpt>
		
			<trkpt lat="44.514020" lon="8.094650">
			 <ele>735</ele>
			<time>2017-11-11T07:30:30Z</time>
			</trkpt>
		
			<trkpt lat="44.514010" lon="8.094630">
			 <ele>735</ele>
			<time>2017-11-11T07:32:30Z</time>
			</trkpt>
		
			<trkpt lat="44.514010" lon="8.094610">
			 <ele>735</ele>
			<time>2017-11-11T07:34:30Z</time>
			</trkpt>
		
			<trkpt lat="44.514000" lon="8.094550">
			 <ele>736</ele>
			<time>2017-11-11T07:36:30Z</time>
			</trkpt>
		
			<trkpt lat="44.513990" lon="8.094490">
			 <ele>736</ele>
			<time>2017-11-11T07:38:30Z</time>
			</trkpt>
		
			<trkpt lat="44.513980" lon="8.094430">
			 <ele>737</ele>
			<time>2017-11-11T07:40:30Z</time>
			</trkpt>
		
			<trkpt lat="44.513940" lon="8.094310">
			 <ele>737</ele>
			<time>2017-11-11T07:42:30Z</time>
			</trkpt>
		
			<trkpt lat="44.513920" lon="8.094250">
			 <ele>738</ele>
			<time>2017-11-11T07:44:30Z</time>
			</trkpt>
		
			<trkpt lat="44.513900" lon="8.094190">
			 <ele>738</ele>
			<time>2017-11-11T07:46:30Z</time>
			</trkpt>
		
			<trkpt lat="44.513900" lon="8.094170">
			 <ele>738</ele>
			<time>2017-11-11T07:48:30Z</time>
			</trkpt>
		
			<trkpt lat="44.513900" lon="8.094130">
			 <ele>738</ele>
			<time>2017-11-11T07:50:30Z</time>
			</trkpt>
		
			<trkpt lat="44.513910" lon="8.094110">
			 <ele>738</ele>
			<time>2017-11-11T07:52:30Z</time>
			</trkpt>
		
			<trkpt lat="44.513930" lon="8.094070">
			 <ele>738</ele>
			<time>2017-11-11T07:54:30Z</time>
			</trkpt>
		
			<trkpt lat="44.513950" lon="8.094040">
			 <ele>739</ele>
			<time>2017-11-11T07:56:30Z</time>
			</trkpt>
		
			<trkpt lat="44.513980" lon="8.094000">
			 <ele>739</ele>
			<time>2017-11-11T07:58:30Z</time>
			</trkpt>
		
			<trkpt lat="44.514020" lon="8.093960">
			 <ele>740</ele>
			<time>2017-11-11T08:00:30Z</time>
			</trkpt>
		
			<trkpt lat="44.514090" lon="8.093890">
			 <ele>742</ele>
			<time>2017-11-11T08:02:30Z</time>
			</trkpt>
		
			<trkpt lat="44.514210" lon="8.093760">
			 <ele>746</ele>
			<time>2017-11-11T08:04:30Z</time>
			</trkpt>
		
			<trkpt lat="44.514430" lon="8.093500">
			 <ele>751</ele>
			<time>2017-11-11T08:06:30Z</time>
			</trkpt>
		
			<trkpt lat="44.514640" lon="8.093270">
			 <ele>756</ele>
			<time>2017-11-11T08:08:30Z</time>
			</trkpt>
		
			<trkpt lat="44.514790" lon="8.093140">
			 <ele>758</ele>
			<time>2017-11-11T08:10:30Z</time>
			</trkpt>
		
			<trkpt lat="44.514860" lon="8.093090">
			 <ele>760</ele>
			<time>2017-11-11T08:12:30Z</time>
			</trkpt>
		
			<trkpt lat="44.515020" lon="8.092990">
			 <ele>763</ele>
			<time>2017-11-11T08:14:30Z</time>
			</trkpt>
		
			<trkpt lat="44.515150" lon="8.092930">
			 <ele>764</ele>
			<time>2017-11-11T08:16:30Z</time>
			</trkpt>
		
			<trkpt lat="44.515300" lon="8.092870">
			 <ele>766</ele>
			<time>2017-11-11T08:18:30Z</time>
			</trkpt>
		
			<trkpt lat="44.515420" lon="8.092820">
			 <ele>767</ele>
			<time>2017-11-11T08:20:30Z</time>
			</trkpt>
		
			<trkpt lat="44.515560" lon="8.092750">
			 <ele>769</ele>
			<time>2017-11-11T08:22:30Z</time>
			</trkpt>
		
			<trkpt lat="44.515650" lon="8.092710">
			 <ele>770</ele>
			<time>2017-11-11T08:24:30Z</time>
			</trkpt>
		
			<trkpt lat="44.515750" lon="8.092680">
			 <ele>771</ele>
			<time>2017-11-11T08:26:30Z</time>
			</trkpt>
		
			<trkpt lat="44.516010" lon="8.092610">
			 <ele>776</ele>
			<time>2017-11-11T08:28:30Z</time>
			</trkpt>
		
			<trkpt lat="44.516130" lon="8.092580">
			 <ele>779</ele>
			<time>2017-11-11T08:30:30Z</time>
			</trkpt>
		
			<trkpt lat="44.516180" lon="8.092550">
			 <ele>780</ele>
			<time>2017-11-11T08:32:30Z</time>
			</trkpt>
		
			<trkpt lat="44.516230" lon="8.092520">
			 <ele>781</ele>
			<time>2017-11-11T08:34:30Z</time>
			</trkpt>
		
			<trkpt lat="44.516350" lon="8.092430">
			 <ele>784</ele>
			<time>2017-11-11T08:36:30Z</time>
			</trkpt>
		
			<trkpt lat="44.516400" lon="8.092370">
			 <ele>785</ele>
			<time>2017-11-11T08:38:30Z</time>
			</trkpt>
		
			<trkpt lat="44.516430" lon="8.092330">
			 <ele>786</ele>
			<time>2017-11-11T08:40:30Z</time>
			</trkpt>
		
			<trkpt lat="44.516460" lon="8.092270">
			 <ele>786</ele>
			<time>2017-11-11T08:42:30Z</time>
			</trkpt>
		
			<trkpt lat="44.516480" lon="8.092200">
			 <ele>787</ele>
			<time>2017-11-11T08:44:30Z</time>
			</trkpt>
		
			<trkpt lat="44.516490" lon="8.092080">
			 <ele>787</ele>
			<time>2017-11-11T08:46:30Z</time>
			</trkpt>
		
			<trkpt lat="44.516500" lon="8.091900">
			 <ele>787</ele>
			<time>2017-11-11T08:48:30Z</time>
			</trkpt>
		
			<trkpt lat="44.516500" lon="8.091760">
			 <ele>786</ele>
			<time>2017-11-11T08:50:30Z</time>
			</trkpt>
		
			<trkpt lat="44.516490" lon="8.091640">
			 <ele>786</ele>
			<time>2017-11-11T08:52:30Z</time>
			</trkpt>
		
			<trkpt lat="44.516400" lon="8.091260">
			 <ele>785</ele>
			<time>2017-11-11T08:54:30Z</time>
			</trkpt>
		
			<trkpt lat="44.516390" lon="8.091200">
			 <ele>785</ele>
			<time>2017-11-11T08:56:30Z</time>
			</trkpt>
		
			<trkpt lat="44.516380" lon="8.091160">
			 <ele>785</ele>
			<time>2017-11-11T08:58:30Z</time>
			</trkpt>
		
			<trkpt lat="44.516380" lon="8.091130">
			 <ele>785</ele>
			<time>2017-11-11T09:00:30Z</time>
			</trkpt>
		
			<trkpt lat="44.516380" lon="8.091110">
			 <ele>785</ele>
			<time>2017-11-11T09:02:30Z</time>
			</trkpt>
		
			<trkpt lat="44.516380" lon="8.091070">
			 <ele>786</ele>
			<time>2017-11-11T09:04:30Z</time>
			</trkpt>
		
			<trkpt lat="44.516380" lon="8.091030">
			 <ele>786</ele>
			<time>2017-11-11T09:06:30Z</time>
			</trkpt>
		
			<trkpt lat="44.516390" lon="8.090970">
			 <ele>787</ele>
			<time>2017-11-11T09:08:30Z</time>
			</trkpt>
		
			<trkpt lat="44.516410" lon="8.090890">
			 <ele>789</ele>
			<time>2017-11-11T09:10:30Z</time>
			</trkpt>
		
			<trkpt lat="44.516420" lon="8.090830">
			 <ele>789</ele>
			<time>2017-11-11T09:12:30Z</time>
			</trkpt>
		
			<trkpt lat="44.516450" lon="8.090730">
			 <ele>792</ele>
			<time>2017-11-11T09:14:30Z</time>
			</trkpt>
		
			<trkpt lat="44.516460" lon="8.090650">
			 <ele>794</ele>
			<time>2017-11-11T09:16:30Z</time>
			</trkpt>
		
			<trkpt lat="44.516470" lon="8.090560">
			 <ele>795</ele>
			<time>2017-11-11T09:18:30Z</time>
			</trkpt>
		
			<trkpt lat="44.516480" lon="8.090480">
			 <ele>796</ele>
			<time>2017-11-11T09:20:30Z</time>
			</trkpt>
		
			<trkpt lat="44.516460" lon="8.090340">
			 <ele>797</ele>
			<time>2017-11-11T09:22:30Z</time>
			</trkpt>
		
			<trkpt lat="44.516420" lon="8.090200">
			 <ele>797</ele>
			<time>2017-11-11T09:24:30Z</time>
			</trkpt>
		
			<trkpt lat="44.516390" lon="8.090090">
			 <ele>798</ele>
			<time>2017-11-11T09:26:30Z</time>
			</trkpt>
		
			<trkpt lat="44.516350" lon="8.089950">
			 <ele>799</ele>
			<time>2017-11-11T09:28:30Z</time>
			</trkpt>
		
			<trkpt lat="44.516320" lon="8.089820">
			 <ele>800</ele>
			<time>2017-11-11T09:30:30Z</time>
			</trkpt>
		
			<trkpt lat="44.516290" lon="8.089730">
			 <ele>801</ele>
			<time>2017-11-11T09:32:30Z</time>
			</trkpt>
		
			<trkpt lat="44.516240" lon="8.089630">
			 <ele>801</ele>
			<time>2017-11-11T09:34:30Z</time>
			</trkpt>
		
			<trkpt lat="44.516180" lon="8.089550">
			 <ele>801</ele>
			<time>2017-11-11T09:36:30Z</time>
			</trkpt>
		
			<trkpt lat="44.516100" lon="8.089490">
			 <ele>801</ele>
			<time>2017-11-11T09:38:30Z</time>
			</trkpt>
		
			<trkpt lat="44.515990" lon="8.089420">
			 <ele>800</ele>
			<time>2017-11-11T09:40:30Z</time>
			</trkpt>
		
			<trkpt lat="44.515870" lon="8.089370">
			 <ele>798</ele>
			<time>2017-11-11T09:42:30Z</time>
			</trkpt>
		
			<trkpt lat="44.515730" lon="8.089270">
			 <ele>797</ele>
			<time>2017-11-11T09:44:30Z</time>
			</trkpt>
		
			<trkpt lat="44.515680" lon="8.089220">
			 <ele>797</ele>
			<time>2017-11-11T09:46:30Z</time>
			</trkpt>
		
			<trkpt lat="44.515640" lon="8.089180">
			 <ele>797</ele>
			<time>2017-11-11T09:48:30Z</time>
			</trkpt>
		
			<trkpt lat="44.515610" lon="8.089130">
			 <ele>797</ele>
			<time>2017-11-11T09:50:30Z</time>
			</trkpt>
		
			<trkpt lat="44.515580" lon="8.089040">
			 <ele>798</ele>
			<time>2017-11-11T09:52:30Z</time>
			</trkpt>
		
			<trkpt lat="44.515560" lon="8.088970">
			 <ele>799</ele>
			<time>2017-11-11T09:54:30Z</time>
			</trkpt>
		
			<trkpt lat="44.515520" lon="8.088900">
			 <ele>799</ele>
			<time>2017-11-11T09:56:30Z</time>
			</trkpt>
		
			<trkpt lat="44.515470" lon="8.088820">
			 <ele>799</ele>
			<time>2017-11-11T09:58:30Z</time>
			</trkpt>
		
			<trkpt lat="44.515420" lon="8.088740">
			 <ele>799</ele>
			<time>2017-11-11T10:00:30Z</time>
			</trkpt>
		
			<trkpt lat="44.515400" lon="8.088690">
			 <ele>799</ele>
			<time>2017-11-11T10:02:30Z</time>
			</trkpt>
		
			<trkpt lat="44.515380" lon="8.088650">
			 <ele>800</ele>
			<time>2017-11-11T10:04:30Z</time>
			</trkpt>
		
			<trkpt lat="44.515370" lon="8.088550">
			 <ele>801</ele>
			<time>2017-11-11T10:06:30Z</time>
			</trkpt>
		
			<trkpt lat="44.515360" lon="8.088490">
			 <ele>802</ele>
			<time>2017-11-11T10:08:30Z</time>
			</trkpt>
		
			<trkpt lat="44.515330" lon="8.088400">
			 <ele>803</ele>
			<time>2017-11-11T10:10:30Z</time>
			</trkpt>
		
			<trkpt lat="44.515300" lon="8.088290">
			 <ele>804</ele>
			<time>2017-11-11T10:12:30Z</time>
			</trkpt>
		
			<trkpt lat="44.515240" lon="8.088190">
			 <ele>804</ele>
			<time>2017-11-11T10:14:30Z</time>
			</trkpt>
		
			<trkpt lat="44.515200" lon="8.088120">
			 <ele>804</ele>
			<time>2017-11-11T10:16:30Z</time>
			</trkpt>
		
			<trkpt lat="44.515140" lon="8.088060">
			 <ele>803</ele>
			<time>2017-11-11T10:18:30Z</time>
			</trkpt>
		
			<trkpt lat="44.515050" lon="8.087990">
			 <ele>802</ele>
			<time>2017-11-11T10:20:30Z</time>
			</trkpt>
		
			<trkpt lat="44.514980" lon="8.087930">
			 <ele>802</ele>
			<time>2017-11-11T10:22:30Z</time>
			</trkpt>
		
			<trkpt lat="44.514930" lon="8.087880">
			 <ele>803</ele>
			<time>2017-11-11T10:24:30Z</time>
			</trkpt>
		
			<trkpt lat="44.514920" lon="8.087840">
			 <ele>803</ele>
			<time>2017-11-11T10:26:30Z</time>
			</trkpt>
		
			<trkpt lat="44.514910" lon="8.087820">
			 <ele>804</ele>
			<time>2017-11-11T10:28:30Z</time>
			</trkpt>
		
			<trkpt lat="44.514900" lon="8.087780">
			 <ele>804</ele>
			<time>2017-11-11T10:30:30Z</time>
			</trkpt>
		
			<trkpt lat="44.514890" lon="8.087750">
			 <ele>805</ele>
			<time>2017-11-11T10:32:30Z</time>
			</trkpt>
		
			<trkpt lat="44.514900" lon="8.087700">
			 <ele>805</ele>
			<time>2017-11-11T10:34:30Z</time>
			</trkpt>
		
			<trkpt lat="44.514920" lon="8.087660">
			 <ele>806</ele>
			<time>2017-11-11T10:36:30Z</time>
			</trkpt>
		
			<trkpt lat="44.514930" lon="8.087630">
			 <ele>806</ele>
			<time>2017-11-11T10:38:30Z</time>
			</trkpt>
		
			<trkpt lat="44.514950" lon="8.087610">
			 <ele>807</ele>
			<time>2017-11-11T10:40:30Z</time>
			</trkpt>
		
			<trkpt lat="44.515010" lon="8.087540">
			 <ele>808</ele>
			<time>2017-11-11T10:42:30Z</time>
			</trkpt>
		
			<trkpt lat="44.515060" lon="8.087500">
			 <ele>809</ele>
			<time>2017-11-11T10:44:30Z</time>
			</trkpt>
		
			<trkpt lat="44.515090" lon="8.087460">
			 <ele>809</ele>
			<time>2017-11-11T10:46:30Z</time>
			</trkpt>
		
				</trkseg>
			   </trk>
			 </gpx>
	